sensor_id;sensor_type;location;lat;lon;timestamp;pressure;altitude;pressure_sealevel;temperature;humidity
3176;BME280;1599;51.564;6.990;2023-11-18T00:01:55;101867.16;;;3.00;100.00
3176;BME280;1599;51.564;6.990;2023-11-18T00:04:21;101864.94;;;2.96;100.00
3176;BME280;1599;51.564;6.990;2023-11-18T00:06:47;101868.66;;;2.95;100.00
3176;BME280;1599;51.564;6.990;2023-11-18T00:09:14;101862.06;;;2.97;100.00
3176;BME280;1599;51.564;6.990;2023-11-18T00:11:43;101862.13;;;3.13;100.00
3176;BME280;1599;51.564;6.990;2023-11-18T00:14:09;101865.47;;;2.99;100.00
3176;BME280;1599;51.564;6.990;2023-11-18T00:16:38;101871.22;;;2.96;100.00
3176;BME280;1599;51.564;6.990;2023-11-18T00:19:04;101865.66;;;3.06;100.00
3176;BME280;1599;51.564;6.990;2023-11-18T00:21:35;101868.22;;;3.07;100.00
3176;BME280;1599;51.564;6.990;2023-11-18T00:24:01;101866.19;;;3.09;100.00
3176;BME280;1599;51.564;6.990;2023-11-18T00:26:27;101868.72;;;3.11;100.00
3176;BME280;1599;51.564;6.990;2023-11-18T00:28:54;101859.69;;;3.02;100.00
3176;BME280;1599;51.564;6.990;2023-11-18T00:31:20;101863.84;;;3.15;100.00
3176;BME280;1599;51.564;6.990;2023-11-18T00:33:46;101861.63;;;3.18;100.00
3176;BME280;1599;51.564;6.990;2023-11-18T00:36:12;101859.25;;;3.15;100.00
3176;BME280;1599;51.564;6.990;2023-11-18T00:38:38;101850.09;;;3.24;100.00
3176;BME280;1599;51.564;6.990;2023-11-18T00:41:06;101856.94;;;3.28;100.00
3176;BME280;1599;51.564;6.990;2023-11-18T00:43:32;101854.00;;;3.22;100.00
3176;BME280;1599;51.564;6.990;2023-11-18T00:45:58;101848.94;;;3.27;100.00
3176;BME280;1599;51.564;6.990;2023-11-18T00:48:25;101843.53;;;3.35;100.00
3176;BME280;1599;51.564;6.990;2023-11-18T00:50:50;101846.59;;;3.40;100.00
3176;BME280;1599;51.564;6.990;2023-11-18T00:53:17;101839.81;;;3.36;100.00
3176;BME280;1599;51.564;6.990;2023-11-18T00:55:43;101841.09;;;3.24;100.00
3176;BME280;1599;51.564;6.990;2023-11-18T00:58:09;101838.53;;;3.14;100.00
3176;BME280;1599;51.564;6.990;2023-11-18T01:00:34;101835.69;;;3.32;100.00
3176;BME280;1599;51.564;6.990;2023-11-18T01:03:02;101836.91;;;3.37;100.00
3176;BME280;1599;51.564;6.990;2023-11-18T01:05:28;101839.94;;;3.34;100.00
3176;BME280;1599;51.564;6.990;2023-11-18T01:07:57;101840.03;;;3.08;100.00
3176;BME280;1599;51.564;6.990;2023-11-18T01:10:23;101844.44;;;3.01;100.00
3176;BME280;1599;51.564;6.990;2023-11-18T01:12:49;101836.47;;;3.08;100.00
3176;BME280;1599;51.564;6.990;2023-11-18T01:15:15;101852.44;;;3.11;100.00
3176;BME280;1599;51.564;6.990;2023-11-18T01:17:40;101840.75;;;3.19;100.00
3176;BME280;1599;51.564;6.990;2023-11-18T01:20:07;101844.53;;;3.26;100.00
3176;BME280;1599;51.564;6.990;2023-11-18T01:22:37;101844.53;;;3.34;100.00
3176;BME280;1599;51.564;6.990;2023-11-18T01:25:05;101851.00;;;3.33;100.00
3176;BME280;1599;51.564;6.990;2023-11-18T01:27:31;101860.50;;;3.37;100.00
3176;BME280;1599;51.564;6.990;2023-11-18T01:29:59;101856.78;;;3.46;100.00
3176;BME280;1599;51.564;6.990;2023-11-18T01:32:25;101876.31;;;3.41;100.00
3176;BME280;1599;51.564;6.990;2023-11-18T01:34:51;101883.25;;;3.36;100.00
3176;BME280;1599;51.564;6.990;2023-11-18T01:37:17;101876.06;;;3.27;100.00
3176;BME280;1599;51.564;6.990;2023-11-18T01:39:43;101878.28;;;3.23;100.00
3176;BME280;1599;51.564;6.990;2023-11-18T01:42:09;101873.63;;;2.99;100.00
3176;BME280;1599;51.564;6.990;2023-11-18T01:44:34;101874.31;;;3.01;100.00
3176;BME280;1599;51.564;6.990;2023-11-18T01:47:02;101875.25;;;2.92;100.00
3176;BME280;1599;51.564;6.990;2023-11-18T01:49:32;101872.19;;;2.87;100.00
3176;BME280;1599;51.564;6.990;2023-11-18T01:52:02;101868.19;;;2.66;100.00
3176;BME280;1599;51.564;6.990;2023-11-18T01:54:29;101875.44;;;2.57;100.00
3176;BME280;1599;51.564;6.990;2023-11-18T01:56:55;101875.31;;;2.41;100.00
3176;BME280;1599;51.564;6.990;2023-11-18T01:59:22;101868.19;;;2.40;100.00
3176;BME280;1599;51.564;6.990;2023-11-18T02:01:50;101871.19;;;2.29;100.00
3176;BME280;1599;51.564;6.990;2023-11-18T02:04:19;101870.63;;;2.25;100.00
3176;BME280;1599;51.564;6.990;2023-11-18T02:06:46;101869.78;;;2.25;100.00
3176;BME280;1599;51.564;6.990;2023-11-18T02:09:15;101869.88;;;2.15;100.00
3176;BME280;1599;51.564;6.990;2023-11-18T02:14:32;101857.81;;;2.10;100.00
3176;BME280;1599;51.564;6.990;2023-11-18T02:17:03;101860.69;;;2.08;100.00
3176;BME280;1599;51.564;6.990;2023-11-18T02:19:31;101865.09;;;2.09;100.00
3176;BME280;1599;51.564;6.990;2023-11-18T02:21:57;101863.91;;;2.12;100.00
3176;BME280;1599;51.564;6.990;2023-11-18T02:24:33;101854.16;;;2.19;100.00
3176;BME280;1599;51.564;6.990;2023-11-18T02:27:04;101841.03;;;2.32;100.00
3176;BME280;1599;51.564;6.990;2023-11-18T02:29:35;101848.50;;;2.38;100.00
3176;BME280;1599;51.564;6.990;2023-11-18T02:32:36;101844.94;;;2.37;100.00
3176;BME280;1599;51.564;6.990;2023-11-18T02:35:23;101840.75;;;2.43;100.00
3176;BME280;1599;51.564;6.990;2023-11-18T02:37:50;101842.34;;;2.54;100.00
3176;BME280;1599;51.564;6.990;2023-11-18T02:40:41;101844.59;;;2.58;100.00
3176;BME280;1599;51.564;6.990;2023-11-18T02:43:09;101842.44;;;2.70;100.00
3176;BME280;1599;51.564;6.990;2023-11-18T02:45:37;101843.88;;;2.90;100.00
3176;BME280;1599;51.564;6.990;2023-11-18T02:48:04;101841.97;;;2.82;100.00
3176;BME280;1599;51.564;6.990;2023-11-18T02:50:32;101846.94;;;2.95;100.00
3176;BME280;1599;51.564;6.990;2023-11-18T02:52:58;101844.09;;;2.96;100.00
3176;BME280;1599;51.564;6.990;2023-11-18T02:55:24;101855.25;;;2.93;100.00
3176;BME280;1599;51.564;6.990;2023-11-18T02:57:50;101858.34;;;2.98;100.00
3176;BME280;1599;51.564;6.990;2023-11-18T03:00:17;101857.34;;;2.99;100.00
3176;BME280;1599;51.564;6.990;2023-11-18T03:02:50;101850.56;;;3.03;100.00
3176;BME280;1599;51.564;6.990;2023-11-18T03:05:18;101852.25;;;3.04;100.00
3176;BME280;1599;51.564;6.990;2023-11-18T03:07:45;101831.41;;;3.05;100.00
3176;BME280;1599;51.564;6.990;2023-11-18T03:10:13;101831.91;;;3.08;100.00
3176;BME280;1599;51.564;6.990;2023-11-18T03:12:53;101825.47;;;3.09;100.00
3176;BME280;1599;51.564;6.990;2023-11-18T03:15:21;101823.09;;;3.06;100.00
3176;BME280;1599;51.564;6.990;2023-11-18T03:17:48;101823.94;;;3.07;100.00
3176;BME280;1599;51.564;6.990;2023-11-18T03:20:16;101815.13;;;3.05;100.00
3176;BME280;1599;51.564;6.990;2023-11-18T03:22:46;101813.94;;;3.07;100.00
3176;BME280;1599;51.564;6.990;2023-11-18T03:25:13;101807.81;;;3.13;100.00
3176;BME280;1599;51.564;6.990;2023-11-18T03:27:40;101810.53;;;3.13;100.00
3176;BME280;1599;51.564;6.990;2023-11-18T03:30:06;101804.44;;;3.11;100.00
3176;BME280;1599;51.564;6.990;2023-11-18T03:32:37;101794.59;;;3.19;100.00
3176;BME280;1599;51.564;6.990;2023-11-18T03:35:07;101805.09;;;3.13;100.00
3176;BME280;1599;51.564;6.990;2023-11-18T03:37:37;101806.25;;;3.03;100.00
3176;BME280;1599;51.564;6.990;2023-11-18T03:40:14;101798.84;;;3.05;100.00
3176;BME280;1599;51.564;6.990;2023-11-18T03:42:43;101798.66;;;3.06;100.00
3176;BME280;1599;51.564;6.990;2023-11-18T03:45:09;101794.56;;;3.10;100.00
3176;BME280;1599;51.564;6.990;2023-11-18T03:47:36;101810.38;;;3.07;100.00
3176;BME280;1599;51.564;6.990;2023-11-18T03:50:02;101813.94;;;3.07;100.00
3176;BME280;1599;51.564;6.990;2023-11-18T03:52:28;101807.44;;;3.00;100.00
3176;BME280;1599;51.564;6.990;2023-11-18T03:54:54;101812.16;;;2.90;100.00
3176;BME280;1599;51.564;6.990;2023-11-18T03:57:21;101823.66;;;2.84;100.00
3176;BME280;1599;51.564;6.990;2023-11-18T03:59:47;101822.47;;;2.87;100.00
3176;BME280;1599;51.564;6.990;2023-11-18T04:02:12;101822.47;;;2.87;100.00
3176;BME280;1599;51.564;6.990;2023-11-18T04:04:38;101817.59;;;2.90;100.00
3176;BME280;1599;51.564;6.990;2023-11-18T04:07:04;101832.84;;;2.83;100.00
3176;BME280;1599;51.564;6.990;2023-11-18T04:09:32;101828.09;;;2.85;100.00
3176;BME280;1599;51.564;6.990;2023-11-18T04:11:58;101823.69;;;2.92;100.00
3176;BME280;1599;51.564;6.990;2023-11-18T04:14:24;101828.78;;;2.87;100.00
3176;BME280;1599;51.564;6.990;2023-11-18T04:16:51;101833.56;;;2.93;100.00
3176;BME280;1599;51.564;6.990;2023-11-18T04:19:17;101834.56;;;2.92;100.00
3176;BME280;1599;51.564;6.990;2023-11-18T04:21:43;101831.84;;;2.92;100.00
3176;BME280;1599;51.564;6.990;2023-11-18T04:24:13;101817.28;;;2.93;100.00
3176;BME280;1599;51.564;6.990;2023-11-18T04:26:40;101802.03;;;3.00;100.00
3176;BME280;1599;51.564;6.990;2023-11-18T04:29:06;101806.25;;;3.03;100.00
3176;BME280;1599;51.564;6.990;2023-11-18T04:31:32;101813.19;;;2.97;100.00
3176;BME280;1599;51.564;6.990;2023-11-18T04:33:59;101797.28;;;2.94;100.00
3176;BME280;1599;51.564;6.990;2023-11-18T04:36:25;101791.84;;;3.02;100.00
3176;BME280;1599;51.564;6.990;2023-11-18T04:38:52;101774.22;;;3.06;100.00
3176;BME280;1599;51.564;6.990;2023-11-18T04:41:18;101760.63;;;2.98;100.00
3176;BME280;1599;51.564;6.990;2023-11-18T04:43:43;101759.28;;;2.94;100.00
3176;BME280;1599;51.564;6.990;2023-11-18T04:46:09;101756.56;;;2.94;100.00
3176;BME280;1599;51.564;6.990;2023-11-18T04:48:36;101750.97;;;2.96;100.00
3176;BME280;1599;51.564;6.990;2023-11-18T04:51:02;101757.25;;;2.96;100.00
3176;BME280;1599;51.564;6.990;2023-11-18T04:53:28;101749.44;;;2.93;100.00
3176;BME280;1599;51.564;6.990;2023-11-18T04:55:54;101747.41;;;3.03;100.00
3176;BME280;1599;51.564;6.990;2023-11-18T04:58:20;101755.56;;;3.03;100.00
3176;BME280;1599;51.564;6.990;2023-11-18T05:00:46;101748.97;;;3.14;100.00
3176;BME280;1599;51.564;6.990;2023-11-18T05:03:13;101742.34;;;3.25;100.00
3176;BME280;1599;51.564;6.990;2023-11-18T05:05:39;101738.97;;;3.31;100.00
3176;BME280;1599;51.564;6.990;2023-11-18T05:08:06;101733.56;;;3.39;100.00
3176;BME280;1599;51.564;6.990;2023-11-18T05:10:34;101725.03;;;3.42;100.00
3176;BME280;1599;51.564;6.990;2023-11-18T05:13:00;101721.00;;;3.46;100.00
3176;BME280;1599;51.564;6.990;2023-11-18T05:15:26;101719.94;;;3.55;100.00
3176;BME280;1599;51.564;6.990;2023-11-18T05:17:53;101723.69;;;3.46;100.00
3176;BME280;1599;51.564;6.990;2023-11-18T05:20:20;101724.22;;;3.41;100.00
3176;BME280;1599;51.564;6.990;2023-11-18T05:22:47;101724.38;;;3.48;100.00
3176;BME280;1599;51.564;6.990;2023-11-18T05:25:13;101715.88;;;3.43;100.00
3176;BME280;1599;51.564;6.990;2023-11-18T05:27:39;101715.88;;;3.35;100.00
3176;BME280;1599;51.564;6.990;2023-11-18T05:30:10;101707.91;;;3.33;100.00
3176;BME280;1599;51.564;6.990;2023-11-18T05:32:36;101709.94;;;3.39;100.00
3176;BME280;1599;51.564;6.990;2023-11-18T05:35:04;101706.03;;;3.34;100.00
3176;BME280;1599;51.564;6.990;2023-11-18T05:37:31;101706.53;;;3.37;100.00
3176;BME280;1599;51.564;6.990;2023-11-18T05:40:02;101703.31;;;3.42;100.00
3176;BME280;1599;51.564;6.990;2023-11-18T05:42:36;101703.16;;;3.51;100.00
3176;BME280;1599;51.564;6.990;2023-11-18T05:45:04;101710.47;;;3.59;100.00
3176;BME280;1599;51.564;6.990;2023-11-18T05:47:30;101707.06;;;3.65;100.00
3176;BME280;1599;51.564;6.990;2023-11-18T05:49:56;101713.50;;;3.80;100.00
3176;BME280;1599;51.564;6.990;2023-11-18T05:52:22;101715.16;;;3.81;100.00
3176;BME280;1599;51.564;6.990;2023-11-18T05:54:48;101727.09;;;3.72;100.00
3176;BME280;1599;51.564;6.990;2023-11-18T05:57:18;101723.69;;;3.70;100.00
3176;BME280;1599;51.564;6.990;2023-11-18T05:59:45;101721.66;;;3.72;100.00
3176;BME280;1599;51.564;6.990;2023-11-18T06:02:14;101711.78;;;3.79;100.00
3176;BME280;1599;51.564;6.990;2023-11-18T06:04:44;101700.44;;;3.67;100.00
3176;BME280;1599;51.564;6.990;2023-11-18T06:07:11;101690.03;;;3.79;100.00
3176;BME280;1599;51.564;6.990;2023-11-18T06:09:41;101686.97;;;3.90;100.00
3176;BME280;1599;51.564;6.990;2023-11-18T06:12:09;101692.41;;;3.90;100.00
3176;BME280;1599;51.564;6.990;2023-11-18T06:14:37;101690.38;;;3.84;100.00
3176;BME280;1599;51.564;6.990;2023-11-18T06:17:03;101697.19;;;3.80;100.00
3176;BME280;1599;51.564;6.990;2023-11-18T06:19:29;101687.16;;;3.81;100.00
3176;BME280;1599;51.564;6.990;2023-11-18T06:21:55;101681.03;;;3.87;100.00
3176;BME280;1599;51.564;6.990;2023-11-18T06:24:21;101664.16;;;3.99;100.00
3176;BME280;1599;51.564;6.990;2023-11-18T06:26:47;101662.13;;;4.01;100.00
3176;BME280;1599;51.564;6.990;2023-11-18T06:29:15;101666.13;;;4.21;100.00
3176;BME280;1599;51.564;6.990;2023-11-18T06:31:41;101671.59;;;4.13;100.00
3176;BME280;1599;51.564;6.990;2023-11-18T06:34:08;101674.34;;;4.05;100.00
3176;BME280;1599;51.564;6.990;2023-11-18T06:36:34;101676.41;;;4.03;100.00
3176;BME280;1599;51.564;6.990;2023-11-18T06:39:01;101667.56;;;4.01;100.00
3176;BME280;1599;51.564;6.990;2023-11-18T06:41:27;101667.91;;;4.06;100.00
3176;BME280;1599;51.564;6.990;2023-11-18T06:43:59;101675.63;;;4.25;100.00
3176;BME280;1599;51.564;6.990;2023-11-18T06:46:31;101672.53;;;4.36;100.00
3176;BME280;1599;51.564;6.990;2023-11-18T06:49:03;101669.09;;;4.43;100.00
3176;BME280;1599;51.564;6.990;2023-11-18T06:51:35;101672.41;;;4.30;100.00
3176;BME280;1599;51.564;6.990;2023-11-18T06:54:01;101680.75;;;4.20;100.00
3176;BME280;1599;51.564;6.990;2023-11-18T06:56:41;101676.50;;;4.18;100.00
3176;BME280;1599;51.564;6.990;2023-11-18T06:59:13;101685.72;;;4.09;100.00
3176;BME280;1599;51.564;6.990;2023-11-18T07:01:39;101681.47;;;4.14;100.00
3176;BME280;1599;51.564;6.990;2023-11-18T07:04:09;101683.13;;;4.23;100.00
3176;BME280;1599;51.564;6.990;2023-11-18T07:06:36;101672.59;;;4.20;100.00
3176;BME280;1599;51.564;6.990;2023-11-18T07:09:08;101680.44;;;4.15;100.00
3176;BME280;1599;51.564;6.990;2023-11-18T07:11:47;101692.34;;;4.14;100.00
3176;BME280;1599;51.564;6.990;2023-11-18T07:14:13;101698.09;;;4.19;100.00
3176;BME280;1599;51.564;6.990;2023-11-18T07:16:41;101686.69;;;4.24;100.00
3176;BME280;1599;51.564;6.990;2023-11-18T07:19:07;101696.03;;;4.29;100.00
3176;BME280;1599;51.564;6.990;2023-11-18T07:21:34;101690.41;;;4.31;100.00
3176;BME280;1599;51.564;6.990;2023-11-18T07:24:00;101699.03;;;4.43;100.00
3176;BME280;1599;51.564;6.990;2023-11-18T07:26:27;101689.47;;;4.47;100.00
3176;BME280;1599;51.564;6.990;2023-11-18T07:28:53;101685.75;;;4.48;100.00
3176;BME280;1599;51.564;6.990;2023-11-18T07:31:19;101696.94;;;4.53;100.00
3176;BME280;1599;51.564;6.990;2023-11-18T07:33:45;101690.44;;;4.54;100.00
3176;BME280;1599;51.564;6.990;2023-11-18T07:36:18;101689.41;;;4.63;100.00
3176;BME280;1599;51.564;6.990;2023-11-18T07:38:46;101688.34;;;4.72;100.00
3176;BME280;1599;51.564;6.990;2023-11-18T07:41:12;101667.53;;;4.79;100.00
3176;BME280;1599;51.564;6.990;2023-11-18T07:43:53;101665.06;;;4.92;100.00
3176;BME280;1599;51.564;6.990;2023-11-18T07:46:20;101660.63;;;4.91;100.00
3176;BME280;1599;51.564;6.990;2023-11-18T07:48:52;101661.13;;;4.94;100.00
3176;BME280;1599;51.564;6.990;2023-11-18T07:51:19;101664.31;;;4.98;100.00
3176;BME280;1599;51.564;6.990;2023-11-18T07:53:50;101664.56;;;5.11;100.00
3176;BME280;1599;51.564;6.990;2023-11-18T07:56:16;101654.81;;;5.17;100.00
3176;BME280;1599;51.564;6.990;2023-11-18T07:58:45;101655.31;;;5.20;100.00
3176;BME280;1599;51.564;6.990;2023-11-18T08:01:13;101649.50;;;5.23;100.00
3176;BME280;1599;51.564;6.990;2023-11-18T08:03:39;101641.63;;;5.28;100.00
3176;BME280;1599;51.564;6.990;2023-11-18T08:06:07;101652.53;;;5.28;100.00
3176;BME280;1599;51.564;6.990;2023-11-18T08:08:34;101651.81;;;5.34;100.00
3176;BME280;1599;51.564;6.990;2023-11-18T08:11:02;101661.78;;;5.42;100.00
3176;BME280;1599;51.564;6.990;2023-11-18T08:13:28;101669.19;;;5.48;100.00
3176;BME280;1599;51.564;6.990;2023-11-18T08:15:54;101670.06;;;5.48;100.00
3176;BME280;1599;51.564;6.990;2023-11-18T08:18:19;101681.19;;;5.61;100.00
3176;BME280;1599;51.564;6.990;2023-11-18T08:20:47;101670.75;;;5.65;100.00
3176;BME280;1599;51.564;6.990;2023-11-18T08:23:13;101670.84;;;5.72;100.00
3176;BME280;1599;51.564;6.990;2023-11-18T08:25:39;101671.25;;;5.83;100.00
3176;BME280;1599;51.564;6.990;2023-11-18T08:28:07;101661.88;;;5.86;100.00
3176;BME280;1599;51.564;6.990;2023-11-18T08:30:42;101658.72;;;5.97;100.00
3176;BME280;1599;51.564;6.990;2023-11-18T08:33:08;101659.28;;;6.07;100.00
3176;BME280;1599;51.564;6.990;2023-11-18T08:35:35;101658.03;;;6.09;100.00
3176;BME280;1599;51.564;6.990;2023-11-18T08:38:01;101660.94;;;6.08;100.00
3176;BME280;1599;51.564;6.990;2023-11-18T08:40:28;101659.53;;;6.12;100.00
3176;BME280;1599;51.564;6.990;2023-11-18T08:42:54;101654.00;;;6.20;100.00
3176;BME280;1599;51.564;6.990;2023-11-18T08:45:26;101651.16;;;6.28;100.00
3176;BME280;1599;51.564;6.990;2023-11-18T08:48:00;101647.13;;;6.24;100.00
3176;BME280;1599;51.564;6.990;2023-11-18T08:50:34;101640.69;;;6.32;100.00
3176;BME280;1599;51.564;6.990;2023-11-18T08:53:00;101640.81;;;6.38;100.00
3176;BME280;1599;51.564;6.990;2023-11-18T08:55:31;101641.25;;;6.42;100.00
3176;BME280;1599;51.564;6.990;2023-11-18T08:58:18;101639.63;;;6.47;100.00
3176;BME280;1599;51.564;6.990;2023-11-18T09:00:57;101634.56;;;6.44;100.00
3176;BME280;1599;51.564;6.990;2023-11-18T09:03:39;101634.44;;;6.52;100.00
3176;BME280;1599;51.564;6.990;2023-11-18T09:06:09;101626.34;;;6.59;100.00
3176;BME280;1599;51.564;6.990;2023-11-18T09:08:51;101621.75;;;6.59;100.00
3176;BME280;1599;51.564;6.990;2023-11-18T09:11:23;101624.34;;;6.67;100.00
3176;BME280;1599;51.564;6.990;2023-11-18T09:13:50;101620.94;;;6.65;100.00
3176;BME280;1599;51.564;6.990;2023-11-18T09:16:20;101607.19;;;6.73;100.00
3176;BME280;1599;51.564;6.990;2023-11-18T09:18:49;101605.09;;;6.75;100.00
3176;BME280;1599;51.564;6.990;2023-11-18T09:21:16;101597.59;;;6.77;100.00
3176;BME280;1599;51.564;6.990;2023-11-18T09:23:45;101591.31;;;6.83;100.00
3176;BME280;1599;51.564;6.990;2023-11-18T09:26:13;101586.66;;;6.77;100.00
3176;BME280;1599;51.564;6.990;2023-11-18T09:28:40;101590.28;;;6.84;100.00
3176;BME280;1599;51.564;6.990;2023-11-18T09:31:07;101583.97;;;6.84;100.00
3176;BME280;1599;51.564;6.990;2023-11-18T09:33:39;101592.63;;;6.88;100.00
3176;BME280;1599;51.564;6.990;2023-11-18T09:36:07;101596.53;;;6.78;100.00
3176;BME280;1599;51.564;6.990;2023-11-18T09:38:38;101602.06;;;6.85;100.00
3176;BME280;1599;51.564;6.990;2023-11-18T09:41:08;101599.25;;;6.78;100.00
3176;BME280;1599;51.564;6.990;2023-11-18T09:43:41;101599.63;;;6.75;100.00
3176;BME280;1599;51.564;6.990;2023-11-18T09:46:16;101596.34;;;6.80;100.00
3176;BME280;1599;51.564;6.990;2023-11-18T09:48:46;101602.72;;;6.87;100.00
3176;BME280;1599;51.564;6.990;2023-11-18T09:51:21;101611.63;;;6.96;100.00
3176;BME280;1599;51.564;6.990;2023-11-18T09:53:50;101615.91;;;7.05;100.00
3176;BME280;1599;51.564;6.990;2023-11-18T09:57:00;101602.56;;;7.16;100.00
3176;BME280;1599;51.564;6.990;2023-11-18T09:59:58;101589.19;;;7.28;100.00
3176;BME280;1599;51.564;6.990;2023-11-18T10:02:39;101589.69;;;7.38;100.00
3176;BME280;1599;51.564;6.990;2023-11-18T10:05:07;101594.38;;;7.44;100.00
3176;BME280;1599;51.564;6.990;2023-11-18T10:07:40;101590.56;;;7.38;100.00
3176;BME280;1599;51.564;6.990;2023-11-18T10:10:08;101579.31;;;7.55;100.00
3176;BME280;1599;51.564;6.990;2023-11-18T10:12:51;101572.84;;;7.62;100.00
3176;BME280;1599;51.564;6.990;2023-11-18T10:15:24;101561.66;;;7.57;100.00
3176;BME280;1599;51.564;6.990;2023-11-18T10:17:52;101556.03;;;7.65;100.00
3176;BME280;1599;51.564;6.990;2023-11-18T10:20:45;101556.28;;;7.70;100.00
3176;BME280;1599;51.564;6.990;2023-11-18T10:23:13;101549.72;;;7.65;100.00
3176;BME280;1599;51.564;6.990;2023-11-18T10:25:53;101531.72;;;7.77;100.00
3176;BME280;1599;51.564;6.990;2023-11-18T10:28:35;101532.38;;;7.85;100.00
3176;BME280;1599;51.564;6.990;2023-11-18T10:31:08;101528.59;;;7.86;100.00
3176;BME280;1599;51.564;6.990;2023-11-18T10:33:39;101511.78;;;7.89;100.00
3176;BME280;1599;51.564;6.990;2023-11-18T10:36:22;101502.91;;;7.87;100.00
3176;BME280;1599;51.564;6.990;2023-11-18T10:38:50;101505.47;;;7.95;100.00
3176;BME280;1599;51.564;6.990;2023-11-18T10:41:18;101497.50;;;8.00;100.00
3176;BME280;1599;51.564;6.990;2023-11-18T10:43:48;101493.72;;;8.01;100.00
3176;BME280;1599;51.564;6.990;2023-11-18T10:46:16;101498.41;;;8.07;100.00
3176;BME280;1599;51.564;6.990;2023-11-18T10:48:48;101501.13;;;8.07;100.00
3176;BME280;1599;51.564;6.990;2023-11-18T10:51:18;101502.97;;;8.00;100.00
3176;BME280;1599;51.564;6.990;2023-11-18T10:53:52;101481.97;;;8.07;100.00
3176;BME280;1599;51.564;6.990;2023-11-18T10:56:22;101474.00;;;8.19;100.00
3176;BME280;1599;51.564;6.990;2023-11-18T10:59:07;101450.41;;;8.12;100.00
3176;BME280;1599;51.564;6.990;2023-11-18T11:01:34;101450.69;;;8.30;100.00
3176;BME280;1599;51.564;6.990;2023-11-18T11:04:05;101455.53;;;8.28;100.00
3176;BME280;1599;51.564;6.990;2023-11-18T11:06:32;101450.47;;;8.38;100.00
3176;BME280;1599;51.564;6.990;2023-11-18T11:08:59;101434.91;;;8.38;100.00
3176;BME280;1599;51.564;6.990;2023-11-18T11:11:28;101441.22;;;8.39;100.00
3176;BME280;1599;51.564;6.990;2023-11-18T11:14:03;101450.44;;;8.25;100.00
3176;BME280;1599;51.564;6.990;2023-11-18T11:16:43;101453.56;;;8.22;100.00
3176;BME280;1599;51.564;6.990;2023-11-18T11:19:26;101442.81;;;8.14;100.00
3176;BME280;1599;51.564;6.990;2023-11-18T11:22:05;101440.31;;;8.25;100.00
3176;BME280;1599;51.564;6.990;2023-11-18T11:28:05;101450.25;;;8.33;100.00
3176;BME280;1599;51.564;6.990;2023-11-18T11:33:45;101456.38;;;8.35;100.00
3176;BME280;1599;51.564;6.990;2023-11-18T11:36:21;101455.53;;;8.41;100.00
3176;BME280;1599;51.564;6.990;2023-11-18T11:38:53;101445.84;;;8.45;100.00
3176;BME280;1599;51.564;6.990;2023-11-18T11:41:22;101439.97;;;8.41;100.00
3176;BME280;1599;51.564;6.990;2023-11-18T11:43:52;101443.13;;;8.51;100.00
3176;BME280;1599;51.564;6.990;2023-11-18T11:46:25;101450.50;;;8.51;100.00
3176;BME280;1599;51.564;6.990;2023-11-18T11:48:59;101447.97;;;8.43;100.00
3176;BME280;1599;51.564;6.990;2023-11-18T11:51:37;101442.28;;;8.38;100.00
3176;BME280;1599;51.564;6.990;2023-11-18T11:54:25;101431.53;;;8.43;100.00
3176;BME280;1599;51.564;6.990;2023-11-18T11:56:56;101423.31;;;8.30;100.00
3176;BME280;1599;51.564;6.990;2023-11-18T12:02:23;101432.81;;;8.34;100.00
3176;BME280;1599;51.564;6.990;2023-11-18T12:04:53;101437.88;;;8.37;100.00
3176;BME280;1599;51.564;6.990;2023-11-18T12:07:21;101440.38;;;8.38;100.00
3176;BME280;1599;51.564;6.990;2023-11-18T12:09:50;101440.81;;;8.42;100.00
3176;BME280;1599;51.564;6.990;2023-11-18T12:12:21;101436.16;;;8.42;100.00
3176;BME280;1599;51.564;6.990;2023-11-18T12:15:00;101413.44;;;8.48;100.00
3176;BME280;1599;51.564;6.990;2023-11-18T12:20:44;101385.41;;;8.53;100.00
3176;BME280;1599;51.564;6.990;2023-11-18T12:23:27;101375.72;;;8.37;100.00
3176;BME280;1599;51.564;6.990;2023-11-18T12:25:54;101367.94;;;8.41;100.00
3176;BME280;1599;51.564;6.990;2023-11-18T12:28:32;101361.19;;;8.43;100.00
3176;BME280;1599;51.564;6.990;2023-11-18T12:31:01;101346.88;;;8.35;100.00
3176;BME280;1599;51.564;6.990;2023-11-18T12:39:50;101322.41;;;8.20;100.00
3176;BME280;1599;51.564;6.990;2023-11-18T12:43:00;101317.78;;;8.21;100.00
3176;BME280;1599;51.564;6.990;2023-11-18T12:46:25;101313.97;;;8.22;100.00
3176;BME280;1599;51.564;6.990;2023-11-18T12:48:46;101317.34;;;8.17;100.00
3176;BME280;1599;51.564;6.990;2023-11-18T12:51:15;101302.84;;;8.10;100.00
3176;BME280;1599;51.564;6.990;2023-11-18T12:53:49;101302.84;;;8.10;100.00
3176;BME280;1599;51.564;6.990;2023-11-18T12:56:20;101295.47;;;8.11;100.00
3176;BME280;1599;51.564;6.990;2023-11-18T12:58:48;101300.72;;;8.19;100.00
3176;BME280;1599;51.564;6.990;2023-11-18T13:01:14;101287.03;;;8.19;100.00
3176;BME280;1599;51.564;6.990;2023-11-18T13:03:41;101279.91;;;8.18;100.00
3176;BME280;1599;51.564;6.990;2023-11-18T13:06:11;101255.47;;;8.23;100.00
3176;BME280;1599;51.564;6.990;2023-11-18T13:08:41;101246.66;;;8.34;100.00
3176;BME280;1599;51.564;6.990;2023-11-18T13:11:07;101236.94;;;8.38;100.00
3176;BME280;1599;51.564;6.990;2023-11-18T13:13:38;101240.75;;;8.37;100.00
3176;BME280;1599;51.564;6.990;2023-11-18T13:16:07;101232.53;;;8.37;100.00
3176;BME280;1599;51.564;6.990;2023-11-18T13:18:46;101232.31;;;8.38;100.00
3176;BME280;1599;51.564;6.990;2023-11-18T13:21:24;101222.22;;;8.39;100.00
3176;BME280;1599;51.564;6.990;2023-11-18T13:23:53;101205.97;;;8.44;100.00
3176;BME280;1599;51.564;6.990;2023-11-18T13:26:19;101183.47;;;8.42;100.00
3176;BME280;1599;51.564;6.990;2023-11-18T13:28:47;101177.97;;;8.42;100.00
3176;BME280;1599;51.564;6.990;2023-11-18T13:31:15;101164.28;;;8.42;100.00
3176;BME280;1599;51.564;6.990;2023-11-18T13:33:46;101172.03;;;8.45;100.00
3176;BME280;1599;51.564;6.990;2023-11-18T13:36:13;101163.03;;;8.38;100.00
3176;BME280;1599;51.564;6.990;2023-11-18T13:38:41;101166.56;;;8.45;100.00
3176;BME280;1599;51.564;6.990;2023-11-18T13:41:07;101144.66;;;8.45;100.00
3176;BME280;1599;51.564;6.990;2023-11-18T13:43:45;101142.38;;;8.42;100.00
3176;BME280;1599;51.564;6.990;2023-11-18T13:46:13;101123.03;;;8.37;100.00